EHGR/GLZ METAR and TAF weather

Enter ICAO airport designator
Station Type Date Time Source
EHGR METAR 2020/09/22 07:55 UTC NOAA

EHGR 220755Z AUTO VRB01KT 5000 BR NCD 14/11 Q1012 WHT BECMG 6000


Station Type Date Time Source
EHGR Decoded METAR 2020/09/22 07:55 UTC NOAA

Gilze-Rijen, Netherlands (EHGR) 51-34N 004-56E 24M
Sep 22, 2020 - 03:55 AM EDT / 2020.09.22 0755 UTC
Wind: Variable at 1 MPH (1 KT):0
Visibility: 3 mile(s):0
Weather: mist
Temperature: 57 F (14 C)
Dew Point: 51 F (11 C)
Relative Humidity: 82%
Pressure (altimeter): 29.88 in. Hg (1012 hPa)
ob: EHGR 220755Z AUTO VRB01KT 5000 BR NCD 14/11 Q1012 WHT BECMG 6000
cycle: 8

Station Type Date Time Source
EHGR TAF 2020/09/22 05:06 UTC NOAA

TAF TAF EHGR 220445Z 2205/2217 VRB02KT 3500 BR NSC
TEMPO 2205/2208 0200 FG
BECMG 2207/2209 24003KT 6000 NSW

Example: see airport list